sensor_id;sensor_type;location;lat;lon;timestamp;temperature;humidity
8858;DHT22;4465;50.904;4.696;2023-10-31T00:01:57;10.30;99.90
8858;DHT22;4465;50.904;4.696;2023-10-31T00:04:25;10.30;99.90
8858;DHT22;4465;50.904;4.696;2023-10-31T00:06:51;10.30;99.90
8858;DHT22;4465;50.904;4.696;2023-10-31T00:09:17;10.40;99.90
8858;DHT22;4465;50.904;4.696;2023-10-31T00:11:43;10.40;99.90
8858;DHT22;4465;50.904;4.696;2023-10-31T00:14:12;10.40;99.90
8858;DHT22;4465;50.904;4.696;2023-10-31T00:16:40;10.40;99.90
8858;DHT22;4465;50.904;4.696;2023-10-31T00:19:06;10.40;99.90
8858;DHT22;4465;50.904;4.696;2023-10-31T00:21:32;10.40;99.90
8858;DHT22;4465;50.904;4.696;2023-10-31T00:23:58;10.50;99.90
8858;DHT22;4465;50.904;4.696;2023-10-31T00:26:26;10.50;99.90
8858;DHT22;4465;50.904;4.696;2023-10-31T00:28:54;10.50;99.90
8858;DHT22;4465;50.904;4.696;2023-10-31T00:31:22;10.50;99.90
8858;DHT22;4465;50.904;4.696;2023-10-31T00:33:51;10.40;99.90
8858;DHT22;4465;50.904;4.696;2023-10-31T00:36:16;10.50;99.90
8858;DHT22;4465;50.904;4.696;2023-10-31T00:38:42;10.50;99.90
8858;DHT22;4465;50.904;4.696;2023-10-31T00:41:11;10.50;99.90
8858;DHT22;4465;50.904;4.696;2023-10-31T00:43:39;10.50;99.90
8858;DHT22;4465;50.904;4.696;2023-10-31T00:46:05;10.50;99.90
8858;DHT22;4465;50.904;4.696;2023-10-31T00:48:31;10.50;99.90
8858;DHT22;4465;50.904;4.696;2023-10-31T00:51:03;10.50;99.90
8858;DHT22;4465;50.904;4.696;2023-10-31T00:53:32;10.50;99.90
8858;DHT22;4465;50.904;4.696;2023-10-31T00:55:58;10.50;99.90
8858;DHT22;4465;50.904;4.696;2023-10-31T00:58:24;10.50;99.90
8858;DHT22;4465;50.904;4.696;2023-10-31T01:00:51;10.40;99.90
8858;DHT22;4465;50.904;4.696;2023-10-31T01:03:17;10.40;99.90
8858;DHT22;4465;50.904;4.696;2023-10-31T01:05:43;10.40;99.90
8858;DHT22;4465;50.904;4.696;2023-10-31T01:08:11;10.40;99.90
8858;DHT22;4465;50.904;4.696;2023-10-31T01:10:39;10.40;99.90
8858;DHT22;4465;50.904;4.696;2023-10-31T01:13:05;10.40;99.90
8858;DHT22;4465;50.904;4.696;2023-10-31T01:15:32;10.40;99.90
8858;DHT22;4465;50.904;4.696;2023-10-31T01:18:01;10.40;99.90
8858;DHT22;4465;50.904;4.696;2023-10-31T01:20:27;10.40;99.90
8858;DHT22;4465;50.904;4.696;2023-10-31T01:22:53;10.40;99.90
8858;DHT22;4465;50.904;4.696;2023-10-31T01:25:21;10.40;99.90
8858;DHT22;4465;50.904;4.696;2023-10-31T01:27:46;10.40;99.90
8858;DHT22;4465;50.904;4.696;2023-10-31T01:30:13;10.40;99.90
8858;DHT22;4465;50.904;4.696;2023-10-31T01:32:41;10.40;99.90
8858;DHT22;4465;50.904;4.696;2023-10-31T01:35:09;10.40;99.90
8858;DHT22;4465;50.904;4.696;2023-10-31T01:37:35;10.40;99.90
8858;DHT22;4465;50.904;4.696;2023-10-31T01:40:02;10.40;99.90
8858;DHT22;4465;50.904;4.696;2023-10-31T01:42:29;10.40;99.90
8858;DHT22;4465;50.904;4.696;2023-10-31T01:44:58;10.40;99.90
8858;DHT22;4465;50.904;4.696;2023-10-31T01:47:23;10.40;99.90
8858;DHT22;4465;50.904;4.696;2023-10-31T01:49:51;10.40;99.90
8858;DHT22;4465;50.904;4.696;2023-10-31T01:52:17;10.40;99.90
8858;DHT22;4465;50.904;4.696;2023-10-31T01:54:44;10.40;99.90
8858;DHT22;4465;50.904;4.696;2023-10-31T01:57:10;10.40;99.90
8858;DHT22;4465;50.904;4.696;2023-10-31T01:59:37;10.40;99.90
8858;DHT22;4465;50.904;4.696;2023-10-31T02:02:03;10.40;99.90
8858;DHT22;4465;50.904;4.696;2023-10-31T02:04:33;10.40;99.90
8858;DHT22;4465;50.904;4.696;2023-10-31T02:07:01;10.30;99.90
8858;DHT22;4465;50.904;4.696;2023-10-31T02:09:27;10.30;99.90
8858;DHT22;4465;50.904;4.696;2023-10-31T02:11:57;10.30;99.90
8858;DHT22;4465;50.904;4.696;2023-10-31T02:14:24;10.30;99.90
8858;DHT22;4465;50.904;4.696;2023-10-31T02:16:51;10.20;99.90
8858;DHT22;4465;50.904;4.696;2023-10-31T02:19:21;10.20;99.90
8858;DHT22;4465;50.904;4.696;2023-10-31T02:21:50;10.20;99.90
8858;DHT22;4465;50.904;4.696;2023-10-31T02:24:18;10.20;99.90
8858;DHT22;4465;50.904;4.696;2023-10-31T02:26:43;10.20;99.90
8858;DHT22;4465;50.904;4.696;2023-10-31T02:29:09;10.10;99.90
8858;DHT22;4465;50.904;4.696;2023-10-31T02:31:38;10.10;99.90
8858;DHT22;4465;50.904;4.696;2023-10-31T02:34:04;10.10;99.90
8858;DHT22;4465;50.904;4.696;2023-10-31T02:36:31;10.10;99.90
8858;DHT22;4465;50.904;4.696;2023-10-31T02:38:56;10.10;99.90
8858;DHT22;4465;50.904;4.696;2023-10-31T02:41:22;10.10;99.90
8858;DHT22;4465;50.904;4.696;2023-10-31T02:43:48;10.10;99.90
8858;DHT22;4465;50.904;4.696;2023-10-31T02:46:15;10.20;99.90
8858;DHT22;4465;50.904;4.696;2023-10-31T02:48:41;10.10;99.90
8858;DHT22;4465;50.904;4.696;2023-10-31T02:51:10;10.10;99.90
8858;DHT22;4465;50.904;4.696;2023-10-31T02:53:36;10.10;99.90
8858;DHT22;4465;50.904;4.696;2023-10-31T02:56:03;10.10;99.90
8858;DHT22;4465;50.904;4.696;2023-10-31T02:58:28;10.00;99.90
8858;DHT22;4465;50.904;4.696;2023-10-31T03:00:54;10.00;99.90
8858;DHT22;4465;50.904;4.696;2023-10-31T03:03:20;10.00;99.90
8858;DHT22;4465;50.904;4.696;2023-10-31T03:05:46;10.00;99.90
8858;DHT22;4465;50.904;4.696;2023-10-31T03:08:14;10.00;99.90
8858;DHT22;4465;50.904;4.696;2023-10-31T03:10:41;10.00;99.90
8858;DHT22;4465;50.904;4.696;2023-10-31T03:13:07;10.00;99.90
8858;DHT22;4465;50.904;4.696;2023-10-31T03:15:33;10.00;99.90
8858;DHT22;4465;50.904;4.696;2023-10-31T03:18:01;9.90;99.90
8858;DHT22;4465;50.904;4.696;2023-10-31T03:20:30;9.90;99.90
8858;DHT22;4465;50.904;4.696;2023-10-31T03:22:56;10.00;99.90
8858;DHT22;4465;50.904;4.696;2023-10-31T03:25:24;9.90;99.90
8858;DHT22;4465;50.904;4.696;2023-10-31T03:27:50;9.90;99.90
8858;DHT22;4465;50.904;4.696;2023-10-31T03:30:18;9.90;99.90
8858;DHT22;4465;50.904;4.696;2023-10-31T03:32:43;9.90;99.90
8858;DHT22;4465;50.904;4.696;2023-10-31T03:35:09;10.00;99.90
8858;DHT22;4465;50.904;4.696;2023-10-31T03:37:36;10.00;99.90
8858;DHT22;4465;50.904;4.696;2023-10-31T03:40:06;10.00;99.90
8858;DHT22;4465;50.904;4.696;2023-10-31T03:42:34;9.90;99.90
8858;DHT22;4465;50.904;4.696;2023-10-31T03:45:00;9.90;99.90
8858;DHT22;4465;50.904;4.696;2023-10-31T03:47:26;9.90;99.90
8858;DHT22;4465;50.904;4.696;2023-10-31T03:49:51;9.90;99.90
8858;DHT22;4465;50.904;4.696;2023-10-31T03:52:17;10.00;99.90
8858;DHT22;4465;50.904;4.696;2023-10-31T03:54:47;9.90;99.90
8858;DHT22;4465;50.904;4.696;2023-10-31T03:57:13;9.90;99.90
8858;DHT22;4465;50.904;4.696;2023-10-31T03:59:39;9.90;99.90
8858;DHT22;4465;50.904;4.696;2023-10-31T04:02:05;9.80;99.90
8858;DHT22;4465;50.904;4.696;2023-10-31T04:04:31;9.80;99.90
8858;DHT22;4465;50.904;4.696;2023-10-31T04:06:57;9.80;99.90
8858;DHT22;4465;50.904;4.696;2023-10-31T04:09:23;9.70;99.90
8858;DHT22;4465;50.904;4.696;2023-10-31T04:11:48;9.70;99.90
8858;DHT22;4465;50.904;4.696;2023-10-31T04:14:19;9.80;99.90
8858;DHT22;4465;50.904;4.696;2023-10-31T04:16:45;9.70;99.90
8858;DHT22;4465;50.904;4.696;2023-10-31T04:19:14;9.70;99.90
8858;DHT22;4465;50.904;4.696;2023-10-31T04:21:40;9.70;99.90
8858;DHT22;4465;50.904;4.696;2023-10-31T04:24:06;9.60;99.90
8858;DHT22;4465;50.904;4.696;2023-10-31T04:26:32;9.60;99.90
8858;DHT22;4465;50.904;4.696;2023-10-31T04:28:58;9.60;99.90
8858;DHT22;4465;50.904;4.696;2023-10-31T04:31:26;9.60;99.90
8858;DHT22;4465;50.904;4.696;2023-10-31T04:33:51;9.60;99.90
8858;DHT22;4465;50.904;4.696;2023-10-31T04:36:20;9.60;99.90
8858;DHT22;4465;50.904;4.696;2023-10-31T04:38:45;9.50;99.90
8858;DHT22;4465;50.904;4.696;2023-10-31T04:41:11;9.60;99.90
8858;DHT22;4465;50.904;4.696;2023-10-31T04:43:40;9.50;99.90
8858;DHT22;4465;50.904;4.696;2023-10-31T04:46:07;9.50;99.90
8858;DHT22;4465;50.904;4.696;2023-10-31T04:48:33;9.50;99.90
8858;DHT22;4465;50.904;4.696;2023-10-31T04:51:01;9.50;99.90
8858;DHT22;4465;50.904;4.696;2023-10-31T04:53:29;9.50;99.90
8858;DHT22;4465;50.904;4.696;2023-10-31T04:56:00;9.50;99.90
8858;DHT22;4465;50.904;4.696;2023-10-31T04:58:30;9.50;99.90
8858;DHT22;4465;50.904;4.696;2023-10-31T05:00:56;9.50;99.90
8858;DHT22;4465;50.904;4.696;2023-10-31T05:03:22;9.50;99.90
8858;DHT22;4465;50.904;4.696;2023-10-31T05:05:47;9.40;99.90
8858;DHT22;4465;50.904;4.696;2023-10-31T05:08:13;9.40;99.90
8858;DHT22;4465;50.904;4.696;2023-10-31T05:10:39;9.40;99.90
8858;DHT22;4465;50.904;4.696;2023-10-31T05:13:06;9.40;99.90
8858;DHT22;4465;50.904;4.696;2023-10-31T05:15:31;9.40;99.90
8858;DHT22;4465;50.904;4.696;2023-10-31T05:17:58;9.30;99.90
8858;DHT22;4465;50.904;4.696;2023-10-31T05:20:24;9.30;99.90
8858;DHT22;4465;50.904;4.696;2023-10-31T05:22:52;9.30;99.90
8858;DHT22;4465;50.904;4.696;2023-10-31T05:25:18;9.30;99.90
8858;DHT22;4465;50.904;4.696;2023-10-31T05:27:45;9.30;99.90
8858;DHT22;4465;50.904;4.696;2023-10-31T05:30:13;9.20;99.90
8858;DHT22;4465;50.904;4.696;2023-10-31T05:32:39;9.30;99.90
8858;DHT22;4465;50.904;4.696;2023-10-31T05:35:07;9.30;99.90
8858;DHT22;4465;50.904;4.696;2023-10-31T05:37:36;9.30;99.90
8858;DHT22;4465;50.904;4.696;2023-10-31T05:40:02;9.30;99.90
8858;DHT22;4465;50.904;4.696;2023-10-31T05:42:28;9.30;99.90
8858;DHT22;4465;50.904;4.696;2023-10-31T05:44:54;9.20;99.90
8858;DHT22;4465;50.904;4.696;2023-10-31T05:47:22;9.30;99.90
8858;DHT22;4465;50.904;4.696;2023-10-31T05:49:48;9.30;99.90
8858;DHT22;4465;50.904;4.696;2023-10-31T05:52:14;9.30;99.90
8858;DHT22;4465;50.904;4.696;2023-10-31T05:54:42;9.40;99.90
8858;DHT22;4465;50.904;4.696;2023-10-31T05:57:10;9.30;99.90
8858;DHT22;4465;50.904;4.696;2023-10-31T05:59:37;9.40;99.90
8858;DHT22;4465;50.904;4.696;2023-10-31T06:02:03;9.40;99.90
8858;DHT22;4465;50.904;4.696;2023-10-31T06:04:29;9.40;99.90
8858;DHT22;4465;50.904;4.696;2023-10-31T06:06:55;9.40;99.90
8858;DHT22;4465;50.904;4.696;2023-10-31T06:09:20;9.40;99.90
8858;DHT22;4465;50.904;4.696;2023-10-31T06:11:48;9.40;99.90
8858;DHT22;4465;50.904;4.696;2023-10-31T06:14:14;9.40;99.90
8858;DHT22;4465;50.904;4.696;2023-10-31T06:16:44;9.50;99.90
8858;DHT22;4465;50.904;4.696;2023-10-31T06:19:10;9.50;99.90
8858;DHT22;4465;50.904;4.696;2023-10-31T06:21:36;9.50;99.90
8858;DHT22;4465;50.904;4.696;2023-10-31T06:24:05;9.50;99.90
8858;DHT22;4465;50.904;4.696;2023-10-31T06:26:31;9.50;99.90
8858;DHT22;4465;50.904;4.696;2023-10-31T06:28:57;9.50;99.90
8858;DHT22;4465;50.904;4.696;2023-10-31T06:31:25;9.50;99.90
8858;DHT22;4465;50.904;4.696;2023-10-31T06:33:51;9.60;99.90
8858;DHT22;4465;50.904;4.696;2023-10-31T06:36:17;9.60;99.90
8858;DHT22;4465;50.904;4.696;2023-10-31T06:38:45;9.60;99.90
8858;DHT22;4465;50.904;4.696;2023-10-31T06:41:13;9.60;99.90
8858;DHT22;4465;50.904;4.696;2023-10-31T06:43:39;9.60;99.90
8858;DHT22;4465;50.904;4.696;2023-10-31T06:46:05;9.60;99.90
8858;DHT22;4465;50.904;4.696;2023-10-31T06:48:33;9.60;99.90
8858;DHT22;4465;50.904;4.696;2023-10-31T06:51:01;9.60;99.90
8858;DHT22;4465;50.904;4.696;2023-10-31T06:53:27;9.60;99.90
8858;DHT22;4465;50.904;4.696;2023-10-31T06:55:53;9.60;99.90
8858;DHT22;4465;50.904;4.696;2023-10-31T06:58:19;9.60;99.90
8858;DHT22;4465;50.904;4.696;2023-10-31T07:00:45;9.60;99.90
8858;DHT22;4465;50.904;4.696;2023-10-31T07:03:11;9.70;99.90
8858;DHT22;4465;50.904;4.696;2023-10-31T07:05:41;9.60;99.90
8858;DHT22;4465;50.904;4.696;2023-10-31T07:08:07;9.60;99.90
8858;DHT22;4465;50.904;4.696;2023-10-31T07:10:33;9.60;99.90
8858;DHT22;4465;50.904;4.696;2023-10-31T07:12:59;9.60;99.90
8858;DHT22;4465;50.904;4.696;2023-10-31T07:15:26;9.70;99.90
8858;DHT22;4465;50.904;4.696;2023-10-31T07:17:51;9.70;99.90
8858;DHT22;4465;50.904;4.696;2023-10-31T07:20:20;9.70;99.90
8858;DHT22;4465;50.904;4.696;2023-10-31T07:22:46;9.70;99.90
8858;DHT22;4465;50.904;4.696;2023-10-31T07:25:14;9.70;99.90
8858;DHT22;4465;50.904;4.696;2023-10-31T07:27:39;9.70;99.90
8858;DHT22;4465;50.904;4.696;2023-10-31T07:30:06;9.70;99.90
8858;DHT22;4465;50.904;4.696;2023-10-31T07:32:32;9.70;99.90
8858;DHT22;4465;50.904;4.696;2023-10-31T07:34:58;9.70;99.90
8858;DHT22;4465;50.904;4.696;2023-10-31T07:37:24;9.70;99.90
8858;DHT22;4465;50.904;4.696;2023-10-31T07:39:55;9.80;99.90
8858;DHT22;4465;50.904;4.696;2023-10-31T07:42:23;9.80;99.90
8858;DHT22;4465;50.904;4.696;2023-10-31T07:44:49;9.80;99.90
8858;DHT22;4465;50.904;4.696;2023-10-31T07:47:18;9.90;99.90
8858;DHT22;4465;50.904;4.696;2023-10-31T07:49:47;9.80;99.90
8858;DHT22;4465;50.904;4.696;2023-10-31T07:52:14;9.90;99.90
8858;DHT22;4465;50.904;4.696;2023-10-31T07:54:40;9.90;99.90
8858;DHT22;4465;50.904;4.696;2023-10-31T07:57:06;10.00;99.90
8858;DHT22;4465;50.904;4.696;2023-10-31T07:59:35;10.10;99.90
8858;DHT22;4465;50.904;4.696;2023-10-31T08:02:04;10.10;99.90
8858;DHT22;4465;50.904;4.696;2023-10-31T08:04:30;10.20;99.90
8858;DHT22;4465;50.904;4.696;2023-10-31T08:06:56;10.30;99.90
8858;DHT22;4465;50.904;4.696;2023-10-31T08:09:25;10.30;99.90
8858;DHT22;4465;50.904;4.696;2023-10-31T08:11:51;10.30;99.90
8858;DHT22;4465;50.904;4.696;2023-10-31T08:14:17;10.30;99.90
8858;DHT22;4465;50.904;4.696;2023-10-31T08:16:44;10.40;99.90
8858;DHT22;4465;50.904;4.696;2023-10-31T08:19:10;10.30;99.90
8858;DHT22;4465;50.904;4.696;2023-10-31T08:21:37;10.30;99.90
8858;DHT22;4465;50.904;4.696;2023-10-31T08:24:04;10.30;99.90
8858;DHT22;4465;50.904;4.696;2023-10-31T08:26:33;10.30;99.90
8858;DHT22;4465;50.904;4.696;2023-10-31T08:29:00;10.30;99.90
8858;DHT22;4465;50.904;4.696;2023-10-31T08:31:25;10.30;99.90
8858;DHT22;4465;50.904;4.696;2023-10-31T08:33:51;10.40;99.90
8858;DHT22;4465;50.904;4.696;2023-10-31T08:36:17;10.40;99.90
8858;DHT22;4465;50.904;4.696;2023-10-31T08:38:43;10.40;99.90
8858;DHT22;4465;50.904;4.696;2023-10-31T08:41:11;10.40;99.90
8858;DHT22;4465;50.904;4.696;2023-10-31T08:43:37;10.40;99.90
8858;DHT22;4465;50.904;4.696;2023-10-31T08:46:05;10.40;99.90
8858;DHT22;4465;50.904;4.696;2023-10-31T08:48:35;10.40;99.90
8858;DHT22;4465;50.904;4.696;2023-10-31T08:51:05;10.40;99.90
8858;DHT22;4465;50.904;4.696;2023-10-31T08:53:33;10.40;99.90
8858;DHT22;4465;50.904;4.696;2023-10-31T08:55:59;10.50;99.90
8858;DHT22;4465;50.904;4.696;2023-10-31T08:58:25;10.60;99.90
8858;DHT22;4465;50.904;4.696;2023-10-31T09:00:51;10.60;99.90
8858;DHT22;4465;50.904;4.696;2023-10-31T09:03:19;10.50;99.90
8858;DHT22;4465;50.904;4.696;2023-10-31T09:05:45;10.60;99.90
8858;DHT22;4465;50.904;4.696;2023-10-31T09:08:11;10.50;99.90
8858;DHT22;4465;50.904;4.696;2023-10-31T09:10:37;10.50;99.90
8858;DHT22;4465;50.904;4.696;2023-10-31T09:13:08;10.60;99.90
8858;DHT22;4465;50.904;4.696;2023-10-31T09:15:41;10.60;99.90
8858;DHT22;4465;50.904;4.696;2023-10-31T09:18:07;10.60;99.90
8858;DHT22;4465;50.904;4.696;2023-10-31T09:20:35;10.70;99.90
8858;DHT22;4465;50.904;4.696;2023-10-31T09:23:04;10.80;99.90
8858;DHT22;4465;50.904;4.696;2023-10-31T09:25:30;10.80;99.90
8858;DHT22;4465;50.904;4.696;2023-10-31T09:27:58;10.90;99.90
8858;DHT22;4465;50.904;4.696;2023-10-31T09:30:25;10.90;99.90
8858;DHT22;4465;50.904;4.696;2023-10-31T09:32:51;11.00;99.90
8858;DHT22;4465;50.904;4.696;2023-10-31T09:35:17;11.00;99.90
8858;DHT22;4465;50.904;4.696;2023-10-31T09:37:43;11.00;99.90
8858;DHT22;4465;50.904;4.696;2023-10-31T09:40:11;11.10;99.90
8858;DHT22;4465;50.904;4.696;2023-10-31T09:42:41;11.20;99.90
8858;DHT22;4465;50.904;4.696;2023-10-31T09:45:08;11.20;99.90
8858;DHT22;4465;50.904;4.696;2023-10-31T09:47:34;11.30;99.90
8858;DHT22;4465;50.904;4.696;2023-10-31T09:50:02;11.30;99.90
8858;DHT22;4465;50.904;4.696;2023-10-31T09:52:29;11.40;99.90
8858;DHT22;4465;50.904;4.696;2023-10-31T09:54:54;11.40;99.90
8858;DHT22;4465;50.904;4.696;2023-10-31T09:57:21;11.40;99.90
8858;DHT22;4465;50.904;4.696;2023-10-31T09:59:50;11.40;99.90
8858;DHT22;4465;50.904;4.696;2023-10-31T10:02:16;11.50;99.90
8858;DHT22;4465;50.904;4.696;2023-10-31T10:04:42;11.40;99.90
8858;DHT22;4465;50.904;4.696;2023-10-31T10:07:07;11.40;99.90
8858;DHT22;4465;50.904;4.696;2023-10-31T10:09:33;11.40;99.90
8858;DHT22;4465;50.904;4.696;2023-10-31T10:12:01;11.40;99.90
8858;DHT22;4465;50.904;4.696;2023-10-31T10:14:30;11.40;99.90
8858;DHT22;4465;50.904;4.696;2023-10-31T10:16:59;11.50;99.90
8858;DHT22;4465;50.904;4.696;2023-10-31T10:19:28;11.60;99.90
8858;DHT22;4465;50.904;4.696;2023-10-31T10:21:58;11.60;99.90
8858;DHT22;4465;50.904;4.696;2023-10-31T10:24:24;11.70;99.90
8858;DHT22;4465;50.904;4.696;2023-10-31T10:26:51;11.70;99.90
8858;DHT22;4465;50.904;4.696;2023-10-31T10:29:17;11.80;99.90
8858;DHT22;4465;50.904;4.696;2023-10-31T10:31:45;11.80;99.90
8858;DHT22;4465;50.904;4.696;2023-10-31T10:34:14;11.80;99.90
8858;DHT22;4465;50.904;4.696;2023-10-31T10:36:40;11.80;99.90
8858;DHT22;4465;50.904;4.696;2023-10-31T10:39:06;11.70;99.90
8858;DHT22;4465;50.904;4.696;2023-10-31T10:41:34;11.70;99.90
8858;DHT22;4465;50.904;4.696;2023-10-31T10:44:05;11.70;99.90
8858;DHT22;4465;50.904;4.696;2023-10-31T10:46:35;11.70;99.90
8858;DHT22;4465;50.904;4.696;2023-10-31T10:49:06;11.70;99.90
8858;DHT22;4465;50.904;4.696;2023-10-31T10:52:01;11.70;99.90
8858;DHT22;4465;50.904;4.696;2023-10-31T10:54:37;11.60;99.90
8858;DHT22;4465;50.904;4.696;2023-10-31T10:57:37;11.60;99.90
8858;DHT22;4465;50.904;4.696;2023-10-31T11:00:05;11.60;99.90
8858;DHT22;4465;50.904;4.696;2023-10-31T11:02:36;11.60;99.90
8858;DHT22;4465;50.904;4.696;2023-10-31T11:05:05;11.60;99.90
8858;DHT22;4465;50.904;4.696;2023-10-31T11:07:37;11.60;99.90
8858;DHT22;4465;50.904;4.696;2023-10-31T11:10:04;11.60;99.90
8858;DHT22;4465;50.904;4.696;2023-10-31T11:12:33;11.60;99.90
8858;DHT22;4465;50.904;4.696;2023-10-31T11:15:03;11.60;99.90
8858;DHT22;4465;50.904;4.696;2023-10-31T11:17:39;11.70;99.90
8858;DHT22;4465;50.904;4.696;2023-10-31T11:20:09;11.80;99.90
8858;DHT22;4465;50.904;4.696;2023-10-31T11:22:46;11.80;99.90
8858;DHT22;4465;50.904;4.696;2023-10-31T11:25:20;11.80;99.90
8858;DHT22;4465;50.904;4.696;2023-10-31T11:27:53;11.80;99.90
8858;DHT22;4465;50.904;4.696;2023-10-31T11:32:54;11.80;99.90
8858;DHT22;4465;50.904;4.696;2023-10-31T11:35:22;11.80;99.90
8858;DHT22;4465;50.904;4.696;2023-10-31T11:37:50;11.90;99.90
8858;DHT22;4465;50.904;4.696;2023-10-31T11:40:26;11.90;99.90
8858;DHT22;4465;50.904;4.696;2023-10-31T11:42:58;11.90;99.90
8858;DHT22;4465;50.904;4.696;2023-10-31T11:45:43;11.90;99.90
8858;DHT22;4465;50.904;4.696;2023-10-31T11:48:10;11.90;99.90
8858;DHT22;4465;50.904;4.696;2023-10-31T11:50:39;12.00;99.90
8858;DHT22;4465;50.904;4.696;2023-10-31T11:53:12;12.00;99.90
8858;DHT22;4465;50.904;4.696;2023-10-31T11:55:45;12.00;99.90
8858;DHT22;4465;50.904;4.696;2023-10-31T11:58:23;12.00;99.90
8858;DHT22;4465;50.904;4.696;2023-10-31T12:01:05;12.00;99.90
8858;DHT22;4465;50.904;4.696;2023-10-31T12:03:38;12.00;99.90
8858;DHT22;4465;50.904;4.696;2023-10-31T12:06:05;11.90;99.90
8858;DHT22;4465;50.904;4.696;2023-10-31T12:08:33;11.90;99.90
8858;DHT22;4465;50.904;4.696;2023-10-31T12:13:41;11.90;99.90
8858;DHT22;4465;50.904;4.696;2023-10-31T12:16:10;11.90;99.90
8858;DHT22;4465;50.904;4.696;2023-10-31T12:18:37;11.90;99.90
8858;DHT22;4465;50.904;4.696;2023-10-31T12:21:07;11.90;99.90
8858;DHT22;4465;50.904;4.696;2023-10-31T12:23:34;11.90;99.90
8858;DHT22;4465;50.904;4.696;2023-10-31T12:26:00;11.90;99.90
8858;DHT22;4465;50.904;4.696;2023-10-31T12:28:26;11.90;99.90
8858;DHT22;4465;50.904;4.696;2023-10-31T12:30:55;11.80;99.90
8858;DHT22;4465;50.904;4.696;2023-10-31T12:33:22;11.80;99.90
8858;DHT22;4465;50.904;4.696;2023-10-31T12:35:55;11.70;99.90
8858;DHT22;4465;50.904;4.696;2023-10-31T12:38:22;11.80;99.90
8858;DHT22;4465;50.904;4.696;2023-10-31T12:40:50;11.80;99.90
8858;DHT22;4465;50.904;4.696;2023-10-31T12:43:19;11.80;99.90
8858;DHT22;4465;50.904;4.696;2023-10-31T12:45:47;11.70;99.90
8858;DHT22;4465;50.904;4.696;2023-10-31T12:48:13;11.70;99.90
8858;DHT22;4465;50.904;4.696;2023-10-31T12:50:39;11.70;99.90
8858;DHT22;4465;50.904;4.696;2023-10-31T12:53:10;11.70;99.90
8858;DHT22;4465;50.904;4.696;2023-10-31T12:55:39;11.70;99.90
8858;DHT22;4465;50.904;4.696;2023-10-31T12:58:09;11.60;99.90
8858;DHT22;4465;50.904;4.696;2023-10-31T13:00:45;11.60;99.90
8858;DHT22;4465;50.904;4.696;2023-10-31T13:03:11;11.60;99.90
8858;DHT22;4465;50.904;4.696;2023-10-31T13:05:37;11.60;99.90
8858;DHT22;4465;50.904;4.696;2023-10-31T13:08:18;11.60;99.90
8858;DHT22;4465;50.904;4.696;2023-10-31T13:10:46;11.60;99.90
8858;DHT22;4465;50.904;4.696;2023-10-31T13:13:14;11.50;99.90
8858;DHT22;4465;50.904;4.696;2023-10-31T13:15:40;11.50;99.90
8858;DHT22;4465;50.904;4.696;2023-10-31T13:18:10;11.50;99.90
8858;DHT22;4465;50.904;4.696;2023-10-31T13:20:36;11.50;99.90
8858;DHT22;4465;50.904;4.696;2023-10-31T13:23:04;11.50;99.90
8858;DHT22;4465;50.904;4.696;2023-10-31T13:25:31;11.50;99.90
8858;DHT22;4465;50.904;4.696;2023-10-31T13:27:57;11.50;99.90
8858;DHT22;4465;50.904;4.696;2023-10-31T13:30:24;11.50;99.90
8858;DHT22;4465;50.904;4.696;2023-10-31T13:32:50;11.50;99.90
8858;DHT22;4465;50.904;4.696;2023-10-31T13:35:16;11.50;99.90
8858;DHT22;4465;50.904;4.696;2023-10-31T13:37:42;11.50;99.90
8858;DHT22;4465;50.904;4.696;2023-10-31T13:40:11;11.50;99.90
8858;DHT22;4465;50.904;4.696;2023-10-31T13:42:39;11.40;99.90
8858;DHT22;4465;50.904;4.696;2023-10-31T13:45:06;11.50;99.90
8858;DHT22;4465;50.904;4.696;2023-10-31T13:47:37;11.50;99.90
8858;DHT22;4465;50.904;4.696;2023-10-31T13:50:06;11.50;99.90
8858;DHT22;4465;50.904;4.696;2023-10-31T13:52:34;11.40;99.90
8858;DHT22;4465;50.904;4.696;2023-10-31T13:55:00;11.40;99.90
8858;DHT22;4465;50.904;4.696;2023-10-31T13:57:29;11.40;99.90
8858;DHT22;4465;50.904;4.696;2023-10-31T13:59:54;11.40;99.90
8858;DHT22;4465;50.904;4.696;2023-10-31T14:02:23;11.50;99.90
8858;DHT22;4465;50.904;4.696;2023-10-31T14:04:51;11.40;99.90
8858;DHT22;4465;50.904;4.696;2023-10-31T14:07:26;11.50;99.90
8858;DHT22;4465;50.904;4.696;2023-10-31T14:09:52;11.50;99.90
8858;DHT22;4465;50.904;4.696;2023-10-31T14:12:18;11.50;99.90
8858;DHT22;4465;50.904;4.696;2023-10-31T14:14:45;11.50;99.90
8858;DHT22;4465;50.904;4.696;2023-10-31T14:17:16;11.50;99.90
8858;DHT22;4465;50.904;4.696;2023-10-31T14:19:42;11.50;99.90
8858;DHT22;4465;50.904;4.696;2023-10-31T14:22:14;11.50;99.90
8858;DHT22;4465;50.904;4.696;2023-10-31T14:24:42;11.60;99.90
8858;DHT22;4465;50.904;4.696;2023-10-31T14:27:08;11.60;99.90
8858;DHT22;4465;50.904;4.696;2023-10-31T14:29:36;11.70;99.90
8858;DHT22;4465;50.904;4.696;2023-10-31T14:32:08;11.70;99.90
8858;DHT22;4465;50.904;4.696;2023-10-31T14:34:35;11.80;99.90
8858;DHT22;4465;50.904;4.696;2023-10-31T14:37:01;11.80;99.90
8858;DHT22;4465;50.904;4.696;2023-10-31T14:39:27;11.90;99.90
8858;DHT22;4465;50.904;4.696;2023-10-31T14:41:53;11.90;99.90
8858;DHT22;4465;50.904;4.696;2023-10-31T14:44:19;11.90;99.90
8858;DHT22;4465;50.904;4.696;2023-10-31T14:46:45;11.90;99.90
8858;DHT22;4465;50.904;4.696;2023-10-31T14:49:11;11.90;99.90
8858;DHT22;4465;50.904;4.696;2023-10-31T14:51:39;11.90;99.90
8858;DHT22;4465;50.904;4.696;2023-10-31T14:54:07;11.80;99.90
8858;DHT22;4465;50.904;4.696;2023-10-31T14:56:33;11.80;99.90
8858;DHT22;4465;50.904;4.696;2023-10-31T14:59:01;11.80;99.90
8858;DHT22;4465;50.904;4.696;2023-10-31T15:01:29;11.80;99.90
8858;DHT22;4465;50.904;4.696;2023-10-31T15:03:57;11.80;99.90
8858;DHT22;4465;50.904;4.696;2023-10-31T15:06:23;11.80;99.90
8858;DHT22;4465;50.904;4.696;2023-10-31T15:08:49;11.80;99.90
8858;DHT22;4465;50.904;4.696;2023-10-31T15:11:15;11.80;99.90
8858;DHT22;4465;50.904;4.696;2023-10-31T15:13:42;11.80;99.90
8858;DHT22;4465;50.904;4.696;2023-10-31T15:16:11;11.80;99.90
8858;DHT22;4465;50.904;4.696;2023-10-31T15:18:37;11.80;99.90
8858;DHT22;4465;50.904;4.696;2023-10-31T15:21:03;11.80;99.90
8858;DHT22;4465;50.904;4.696;2023-10-31T15:23:31;11.80;99.90
8858;DHT22;4465;50.904;4.696;2023-10-31T15:26:01;11.80;99.90
8858;DHT22;4465;50.904;4.696;2023-10-31T15:28:27;11.70;99.90
8858;DHT22;4465;50.904;4.696;2023-10-31T15:30:53;11.70;99.90
8858;DHT22;4465;50.904;4.696;2023-10-31T15:33:20;11.70;99.90
8858;DHT22;4465;50.904;4.696;2023-10-31T15:35:46;11.60;99.90
8858;DHT22;4465;50.904;4.696;2023-10-31T15:38:15;11.60;99.90
8858;DHT22;4465;50.904;4.696;2023-10-31T15:40:41;11.60;99.90
8858;DHT22;4465;50.904;4.696;2023-10-31T15:43:07;11.60;99.90
8858;DHT22;4465;50.904;4.696;2023-10-31T15:45:33;11.60;99.90
8858;DHT22;4465;50.904;4.696;2023-10-31T15:48:06;11.60;99.90
8858;DHT22;4465;50.904;4.696;2023-10-31T15:50:33;11.60;99.90
8858;DHT22;4465;50.904;4.696;2023-10-31T15:53:02;11.60;99.90
8858;DHT22;4465;50.904;4.696;2023-10-31T15:55:33;11.60;99.90
8858;DHT22;4465;50.904;4.696;2023-10-31T15:57:59;11.60;99.90
8858;DHT22;4465;50.904;4.696;2023-10-31T16:00:29;11.60;99.90
8858;DHT22;4465;50.904;4.696;2023-10-31T16:02:55;11.60;99.90
8858;DHT22;4465;50.904;4.696;2023-10-31T16:05:24;11.60;99.90
8858;DHT22;4465;50.904;4.696;2023-10-31T16:07:50;11.60;99.90
8858;DHT22;4465;50.904;4.696;2023-10-31T16:10:18;11.60;99.90
8858;DHT22;4465;50.904;4.696;2023-10-31T16:12:44;11.50;99.90
8858;DHT22;4465;50.904;4.696;2023-10-31T16:15:12;11.50;99.90